createdAt,value
2017-11-29T00:01:40.007Z,11.12
2017-11-29T00:04:07.579Z,9.55
2017-11-29T00:06:35.312Z,11.30
2017-11-29T00:09:02.828Z,10.07
2017-11-29T00:11:30.364Z,11.52
2017-11-29T00:13:58.146Z,9.90
2017-11-29T00:16:25.663Z,10.80
2017-11-29T00:18:53.180Z,9.43
2017-11-29T00:21:20.888Z,11.25
2017-11-29T00:23:48.455Z,10.23
2017-11-29T00:26:16.012Z,9.77
2017-11-29T00:28:43.606Z,9.48
2017-11-29T00:31:11.132Z,10.55
2017-11-29T00:33:38.676Z,10.27
2017-11-29T00:36:06.536Z,9.80
2017-11-29T00:38:34.056Z,9.75
2017-11-29T00:41:01.583Z,9.55
2017-11-29T00:43:29.319Z,9.10
2017-11-29T00:45:56.837Z,9.38
2017-11-29T00:48:24.376Z,8.15
2017-11-29T00:50:52.117Z,8.15
2017-11-29T00:53:19.633Z,9.63
2017-11-29T00:55:47.172Z,9.48
2017-11-29T00:58:15.080Z,9.68
2017-11-29T01:00:42.604Z,10.27
2017-11-29T01:03:10.130Z,9.00
2017-11-29T01:05:37.876Z,8.48
2017-11-29T01:08:05.396Z,9.85
2017-11-29T01:10:32.986Z,8.98
2017-11-29T01:13:00.747Z,10.52
2017-11-29T01:15:28.256Z,9.75
2017-11-29T01:17:55.781Z,9.43
2017-11-29T01:20:23.620Z,9.27
2017-11-29T01:22:51.133Z,9.70
2017-11-29T01:25:18.661Z,10.35
2017-11-29T01:27:46.247Z,8.90
2017-11-29T01:30:13.769Z,10.13
2017-11-29T01:32:41.284Z,9.85
2017-11-29T01:35:09.073Z,9.10
2017-11-29T01:37:36.592Z,8.73
2017-11-29T01:40:04.116Z,7.90
2017-11-29T01:42:31.879Z,6.75
2017-11-29T01:44:59.451Z,9.93
2017-11-29T01:47:26.996Z,8.95
2017-11-29T01:49:54.557Z,8.98
2017-11-29T01:52:22.114Z,9.05
2017-11-29T01:54:50.596Z,7.75
2017-11-29T01:57:18.154Z,8.95
2017-11-29T01:59:45.718Z,9.43
2017-11-29T02:02:13.485Z,8.93
2017-11-29T02:04:41.445Z,7.35
2017-11-29T02:07:08.969Z,8.57
2017-11-29T02:09:36.493Z,8.65
2017-11-29T02:12:04.226Z,8.80
2017-11-29T02:14:31.786Z,8.65
2017-11-29T02:16:59.308Z,8.55
2017-11-29T02:19:27.097Z,8.65
2017-11-29T02:21:54.626Z,8.30
2017-11-29T02:24:22.165Z,8.70
2017-11-29T02:26:49.873Z,8.50
2017-11-29T02:29:17.450Z,8.82
2017-11-29T02:31:45.046Z,7.65
2017-11-29T02:34:12.766Z,7.70
2017-11-29T02:36:40.293Z,7.15
2017-11-29T02:39:07.820Z,7.80
2017-11-29T02:41:47.295Z,8.00
2017-11-29T02:44:14.818Z,8.60
2017-11-29T02:46:42.359Z,9.30
2017-11-29T02:49:10.211Z,8.45
2017-11-29T02:51:37.766Z,6.68
2017-11-29T02:54:05.305Z,7.05
2017-11-29T02:56:33.076Z,7.70
2017-11-29T02:59:00.588Z,6.10
2017-11-29T03:01:28.116Z,7.10
2017-11-29T03:03:55.849Z,7.30
2017-11-29T03:06:23.370Z,6.50
2017-11-29T03:08:50.884Z,6.03
2017-11-29T03:11:18.854Z,6.30
2017-11-29T03:13:46.431Z,5.87
2017-11-29T03:16:13.972Z,6.07
2017-11-29T03:18:41.545Z,6.22
2017-11-29T03:21:09.092Z,5.07
2017-11-29T03:23:36.656Z,6.12
2017-11-29T03:26:04.353Z,5.22
2017-11-29T03:28:31.872Z,5.10
2017-11-29T03:30:59.432Z,3.92
2017-11-29T03:33:26.981Z,3.70
2017-11-29T03:35:54.592Z,4.85
2017-11-29T03:38:22.117Z,3.97
2017-11-29T03:40:49.901Z,3.85
2017-11-29T03:43:17.416Z,4.50
2017-11-29T03:45:44.938Z,4.28
2017-11-29T03:48:12.632Z,4.93
2017-11-29T03:50:40.147Z,4.35
2017-11-29T03:53:07.673Z,4.50
2017-11-29T03:55:35.438Z,3.83
2017-11-29T03:58:02.972Z,4.50
2017-11-29T04:00:30.480Z,3.78
2017-11-29T04:02:58.187Z,4.25
2017-11-29T04:05:25.701Z,4.62
2017-11-29T04:07:53.216Z,4.72
2017-11-29T04:10:20.923Z,4.55
2017-11-29T04:12:48.440Z,4.12
2017-11-29T04:15:15.954Z,4.20
2017-11-29T04:17:43.648Z,3.40
2017-11-29T04:20:11.177Z,3.15
2017-11-29T04:22:38.704Z,4.45
2017-11-29T04:25:06.448Z,2.00
2017-11-29T04:27:34.056Z,2.00
2017-11-29T04:30:01.578Z,2.95
2017-11-29T04:32:29.280Z,2.90
2017-11-29T04:34:56.800Z,2.20
2017-11-29T04:37:24.345Z,2.40
2017-11-29T04:39:51.910Z,2.58
2017-11-29T04:42:19.462Z,3.03
2017-11-29T04:44:46.981Z,2.37
2017-11-29T04:47:14.539Z,2.40
2017-11-29T04:49:42.056Z,2.22
2017-11-29T04:52:09.596Z,1.67
2017-11-29T04:54:37.361Z,2.17
2017-11-29T04:57:04.919Z,1.70
2017-11-29T04:59:32.484Z,2.35
2017-11-29T05:02:00.037Z,1.98
2017-11-29T05:04:27.584Z,2.25
2017-11-29T05:06:55.093Z,2.10
2017-11-29T05:09:22.820Z,1.83
2017-11-29T05:11:50.393Z,2.45
2017-11-29T05:14:17.941Z,2.20
2017-11-29T05:16:45.504Z,1.92
2017-11-29T05:19:13.076Z,2.28
2017-11-29T05:21:40.613Z,2.65
2017-11-29T05:24:08.173Z,1.58
2017-11-29T05:26:35.732Z,2.20
2017-11-29T05:29:03.260Z,2.00
2017-11-29T05:31:31.135Z,1.73
2017-11-29T05:33:58.671Z,1.62
2017-11-29T05:36:27.210Z,1.85
2017-11-29T05:38:54.876Z,2.33
2017-11-29T05:41:22.397Z,2.00
2017-11-29T05:43:49.913Z,2.25
2017-11-29T05:46:17.730Z,1.90
2017-11-29T05:48:45.249Z,2.00
2017-11-29T05:51:12.765Z,1.98
2017-11-29T05:53:40.620Z,1.98
2017-11-29T05:56:08.182Z,1.60
2017-11-29T05:58:35.698Z,2.72
2017-11-29T06:01:03.253Z,2.20
2017-11-29T06:03:30.771Z,1.60
2017-11-29T06:05:58.292Z,2.33
2017-11-29T06:08:26.079Z,2.30
2017-11-29T06:10:53.638Z,1.85
2017-11-29T06:13:21.300Z,2.90
2017-11-29T06:15:49.081Z,2.85
2017-11-29T06:18:16.620Z,1.75
2017-11-29T06:20:44.283Z,3.20
2017-11-29T06:23:12.957Z,2.50
2017-11-29T06:25:40.475Z,4.03
2017-11-29T06:28:08.906Z,2.70
2017-11-29T06:30:36.499Z,3.28
2017-11-29T06:33:04.024Z,2.95
2017-11-29T06:35:31.584Z,3.08
2017-11-29T06:37:59.428Z,3.70
2017-11-29T06:40:26.935Z,2.97
2017-11-29T06:42:54.452Z,2.20
2017-11-29T06:45:22.163Z,3.17
2017-11-29T06:47:49.680Z,2.60
2017-11-29T06:50:17.199Z,2.80
2017-11-29T06:52:45.113Z,2.67
2017-11-29T06:55:12.650Z,2.47
2017-11-29T06:57:40.168Z,3.05
2017-11-29T07:00:08.019Z,3.28
2017-11-29T07:02:35.552Z,2.87
2017-11-29T07:05:03.116Z,2.55
2017-11-29T07:07:30.857Z,3.45
2017-11-29T07:09:58.381Z,3.37
2017-11-29T07:12:25.935Z,2.80
2017-11-29T07:14:53.509Z,2.90
2017-11-29T07:17:21.934Z,2.97
2017-11-29T07:19:50.419Z,3.67
2017-11-29T07:22:18.176Z,3.45
2017-11-29T07:24:46.019Z,3.50
2017-11-29T07:27:14.319Z,2.70
2017-11-29T07:29:43.214Z,3.60
2017-11-29T07:32:11.515Z,2.75
2017-11-29T07:34:39.291Z,3.87
2017-11-29T07:37:07.124Z,4.28
2017-11-29T07:39:34.873Z,4.03
2017-11-29T07:42:04.424Z,3.95
2017-11-29T07:44:32.432Z,4.87
2017-11-29T07:46:59.996Z,5.82
2017-11-29T07:49:27.685Z,4.22
2017-11-29T07:51:55.748Z,4.55
2017-11-29T07:54:23.307Z,5.25
2017-11-29T07:56:50.852Z,4.65
2017-11-29T07:59:18.551Z,5.55
2017-11-29T08:01:46.237Z,5.18
2017-11-29T08:04:16.486Z,4.75
2017-11-29T08:06:44.684Z,5.05
2017-11-29T08:09:12.844Z,5.15
2017-11-29T08:11:40.484Z,5.20
2017-11-29T08:14:08.492Z,5.12
2017-11-29T08:16:36.150Z,5.55
2017-11-29T08:19:03.711Z,6.28
2017-11-29T08:21:32.191Z,5.40
2017-11-29T08:23:59.860Z,5.35
2017-11-29T08:26:27.615Z,5.12
2017-11-29T08:28:56.159Z,5.60
2017-11-29T08:31:25.499Z,5.43
2017-11-29T08:33:53.169Z,5.25
2017-11-29T08:36:20.870Z,5.30
2017-11-29T08:38:48.385Z,4.68
2017-11-29T08:41:15.908Z,4.60
2017-11-29T08:43:43.584Z,5.68
2017-11-29T08:46:11.098Z,5.30
2017-11-29T08:48:38.724Z,6.07
2017-11-29T08:51:06.441Z,4.43
2017-11-29T08:53:33.956Z,4.75
2017-11-29T08:56:01.477Z,4.72
2017-11-29T08:58:29.264Z,3.67
2017-11-29T09:00:56.784Z,4.40
2017-11-29T09:03:24.382Z,4.07
2017-11-29T09:05:52.158Z,4.45
2017-11-29T09:08:19.706Z,5.22
2017-11-29T09:10:47.265Z,4.65
2017-11-29T09:13:15.008Z,4.22
2017-11-29T09:15:42.523Z,3.67
2017-11-29T09:18:10.039Z,4.35
2017-11-29T09:20:37.830Z,4.25
2017-11-29T09:23:05.399Z,4.18
2017-11-29T09:25:33.111Z,3.62
2017-11-29T09:28:00.982Z,4.57
2017-11-29T09:30:28.509Z,4.68
2017-11-29T09:32:56.062Z,4.50
2017-11-29T09:35:23.883Z,3.45
2017-11-29T09:37:51.420Z,3.92
2017-11-29T09:40:18.929Z,2.87
2017-11-29T09:42:46.660Z,3.20
2017-11-29T09:45:14.196Z,3.85
2017-11-29T09:47:41.712Z,3.28
2017-11-29T09:50:09.420Z,4.70
2017-11-29T09:52:36.998Z,4.30
2017-11-29T09:55:04.521Z,4.50
2017-11-29T09:57:32.100Z,3.53
2017-11-29T09:59:59.632Z,3.70
2017-11-29T10:02:27.319Z,3.58
2017-11-29T10:04:55.188Z,3.42
2017-11-29T10:07:22.845Z,3.97
2017-11-29T10:09:50.376Z,3.90
2017-11-29T10:12:18.060Z,4.03
2017-11-29T10:14:45.601Z,3.90
2017-11-29T10:17:13.129Z,3.40
2017-11-29T10:19:41.052Z,4.35
2017-11-29T10:22:08.628Z,3.35
2017-11-29T10:24:36.145Z,3.30
2017-11-29T10:27:03.928Z,3.65
2017-11-29T10:29:31.444Z,1.98
2017-11-29T10:31:58.970Z,1.87
2017-11-29T10:34:26.712Z,2.65
2017-11-29T10:36:54.241Z,8.52
2017-11-29T10:39:21.851Z,1.37
2017-11-29T10:41:49.429Z,1.90
2017-11-29T10:44:17.172Z,1.90
2017-11-29T10:46:44.680Z,2.03
2017-11-29T10:49:12.576Z,2.42
2017-11-29T10:51:40.088Z,1.83
2017-11-29T10:54:07.632Z,2.17
2017-11-29T10:56:35.278Z,1.80
2017-11-29T10:59:02.937Z,3.45
2017-11-29T11:01:30.494Z,2.08
2017-11-29T11:03:58.260Z,2.00
2017-11-29T11:06:25.817Z,2.25
2017-11-29T11:08:53.380Z,1.85
2017-11-29T11:11:21.119Z,2.33
2017-11-29T11:13:48.781Z,2.00
2017-11-29T11:16:16.296Z,1.73
2017-11-29T11:18:43.999Z,1.87
2017-11-29T11:21:11.517Z,2.20
2017-11-29T11:23:39.040Z,2.03
2017-11-29T11:26:06.832Z,1.80
2017-11-29T11:28:34.369Z,2.35
2017-11-29T11:31:01.921Z,2.62
2017-11-29T11:33:29.491Z,4.22
2017-11-29T11:35:57.008Z,3.20
2017-11-29T11:38:24.582Z,3.00
2017-11-29T11:40:52.291Z,7.55
2017-11-29T11:43:19.842Z,7.90
2017-11-29T11:45:47.488Z,5.82
2017-11-29T11:48:15.348Z,4.20
2017-11-29T11:50:42.867Z,3.30
2017-11-29T11:53:10.381Z,2.65
2017-11-29T11:55:38.112Z,2.15
2017-11-29T11:58:05.675Z,2.00
2017-11-29T12:00:33.194Z,2.47
2017-11-29T12:03:00.892Z,2.10
2017-11-29T12:05:28.481Z,1.85
2017-11-29T12:07:55.988Z,2.45
2017-11-29T12:10:23.772Z,2.83
2017-11-29T12:12:51.297Z,2.83
2017-11-29T12:15:18.832Z,3.12
2017-11-29T12:17:46.548Z,3.00
2017-11-29T12:20:14.081Z,2.33
2017-11-29T12:22:41.649Z,3.03
2017-11-29T12:25:09.432Z,3.62
2017-11-29T12:27:36.968Z,3.42
2017-11-29T12:30:04.655Z,2.47
2017-11-29T12:32:32.516Z,1.95
2017-11-29T12:35:00.041Z,3.03
2017-11-29T12:37:27.557Z,3.50
2017-11-29T12:39:55.300Z,3.55
2017-11-29T12:42:22.878Z,4.25
2017-11-29T12:44:50.552Z,5.37
2017-11-29T12:47:18.505Z,4.65
2017-11-29T12:49:58.049Z,4.37
2017-11-29T12:52:26.014Z,4.80
2017-11-29T12:54:53.574Z,4.62
2017-11-29T12:57:21.081Z,5.50
2017-11-29T12:59:48.971Z,3.92
2017-11-29T13:02:16.484Z,4.75
2017-11-29T13:04:43.999Z,4.10
2017-11-29T13:07:11.755Z,4.10
2017-11-29T13:09:39.457Z,3.75
2017-11-29T13:12:07.000Z,3.90
2017-11-29T13:14:34.694Z,4.43
2017-11-29T13:17:02.213Z,3.85
2017-11-29T13:19:29.781Z,4.68
2017-11-29T13:21:57.551Z,3.70
2017-11-29T13:24:25.184Z,5.12
2017-11-29T13:26:52.748Z,9.80
2017-11-29T13:29:20.358Z,8.07
2017-11-29T13:31:47.884Z,7.10
2017-11-29T13:34:16.181Z,6.93
2017-11-29T13:36:43.920Z,4.85
2017-11-29T13:39:11.431Z,6.25
2017-11-29T13:41:38.956Z,6.50
2017-11-29T13:44:06.915Z,6.50
2017-11-29T13:46:34.465Z,8.30
2017-11-29T13:49:02.025Z,9.10
2017-11-29T13:51:29.778Z,6.68
2017-11-29T13:53:57.348Z,6.60
2017-11-29T13:56:25.044Z,8.23
2017-11-29T13:58:52.854Z,8.15
2017-11-29T14:01:20.386Z,5.65
2017-11-29T14:03:47.917Z,5.85
2017-11-29T14:06:15.736Z,7.25
2017-11-29T14:08:43.272Z,5.57
2017-11-29T14:11:10.793Z,6.28
2017-11-29T14:13:38.375Z,5.78
2017-11-29T14:16:05.918Z,4.30
2017-11-29T14:18:33.451Z,4.43
2017-11-29T14:21:01.310Z,4.95
2017-11-29T14:23:28.829Z,6.05
2017-11-29T14:25:56.435Z,6.97
2017-11-29T14:28:24.179Z,9.07
2017-11-29T14:30:51.875Z,6.37
2017-11-29T14:33:19.454Z,7.00
2017-11-29T14:35:47.286Z,6.90
2017-11-29T14:38:14.826Z,5.87
2017-11-29T14:40:42.404Z,6.57
2017-11-29T14:43:09.993Z,8.15
2017-11-29T14:45:37.522Z,6.55
2017-11-29T14:48:05.202Z,7.07
2017-11-29T14:50:33.254Z,6.50
2017-11-29T14:53:00.947Z,6.95
2017-11-29T14:55:29.705Z,11.10
2017-11-29T14:57:57.503Z,8.57
2017-11-29T15:00:25.240Z,8.52
2017-11-29T15:02:52.802Z,7.78
2017-11-29T15:05:20.665Z,9.77
2017-11-29T15:07:48.318Z,6.95
2017-11-29T15:10:15.936Z,6.30
2017-11-29T15:12:43.641Z,6.20
2017-11-29T15:15:11.154Z,6.65
2017-11-29T15:17:38.681Z,5.57
2017-11-29T15:20:06.320Z,6.35
2017-11-29T15:22:33.986Z,7.18
2017-11-29T15:25:03.818Z,7.07
2017-11-29T15:27:31.981Z,6.40
2017-11-29T15:30:00.244Z,7.75
2017-11-29T15:32:28.106Z,6.87
2017-11-29T15:34:56.109Z,6.50
2017-11-29T15:37:23.651Z,6.00
2017-11-29T15:39:51.182Z,6.28
2017-11-29T15:42:18.884Z,5.90
2017-11-29T15:44:46.556Z,6.22
2017-11-29T15:47:14.180Z,5.22
2017-11-29T15:49:41.841Z,5.30
2017-11-29T15:52:09.440Z,4.60
2017-11-29T15:54:36.992Z,4.30
2017-11-29T15:57:04.703Z,5.60
2017-11-29T15:59:32.235Z,5.35
2017-11-29T16:01:59.758Z,5.40
2017-11-29T16:04:27.341Z,5.35
2017-11-29T16:06:54.929Z,7.15
2017-11-29T16:09:22.453Z,7.12
2017-11-29T16:11:50.177Z,6.43
2017-11-29T16:14:17.795Z,6.25
2017-11-29T16:16:45.372Z,5.85
2017-11-29T16:19:13.167Z,6.22
2017-11-29T16:21:40.721Z,5.28
2017-11-29T16:24:08.269Z,12.27
2017-11-29T16:26:35.903Z,8.57
2017-11-29T16:29:03.457Z,8.00
2017-11-29T16:31:30.997Z,7.05
2017-11-29T16:33:58.904Z,8.25
2017-11-29T16:36:26.432Z,7.75
2017-11-29T16:38:53.975Z,6.72
2017-11-29T16:41:21.706Z,7.70
2017-11-29T16:43:49.373Z,7.78
2017-11-29T16:46:16.934Z,8.60
2017-11-29T16:48:44.746Z,7.90
2017-11-29T16:51:12.454Z,8.18
2017-11-29T16:53:40.730Z,9.43
2017-11-29T16:56:08.796Z,7.78
2017-11-29T16:58:36.670Z,8.60
2017-11-29T17:01:04.424Z,8.65
2017-11-29T17:03:32.299Z,9.43
2017-11-29T17:05:59.878Z,8.93
2017-11-29T17:08:27.739Z,9.10
2017-11-29T17:10:56.006Z,9.15
2017-11-29T17:13:23.865Z,9.73
2017-11-29T17:15:51.639Z,8.35
2017-11-29T17:18:19.719Z,10.43
2017-11-29T17:20:48.144Z,8.90
2017-11-29T17:23:15.974Z,8.90
2017-11-29T17:25:43.812Z,9.40
2017-11-29T17:28:11.575Z,9.68
2017-11-29T17:30:39.544Z,10.27
2017-11-29T17:33:07.438Z,9.00
2017-11-29T17:35:35.379Z,10.30
2017-11-29T17:38:03.142Z,11.48
2017-11-29T17:40:31.128Z,10.00
2017-11-29T17:42:59.184Z,9.00
2017-11-29T17:45:26.980Z,8.40
2017-11-29T17:47:54.852Z,8.93
2017-11-29T17:50:23.090Z,9.57
2017-11-29T17:52:51.058Z,7.78
2017-11-29T17:55:19.436Z,8.20
2017-11-29T17:57:48.020Z,6.65
2017-11-29T18:00:15.721Z,8.88
2017-11-29T18:02:43.962Z,8.95
2017-11-29T18:05:11.724Z,9.77
2017-11-29T18:07:39.908Z,10.48
2017-11-29T18:10:08.177Z,9.18
2017-11-29T18:12:36.037Z,10.02
2017-11-29T18:15:04.518Z,10.13
2017-11-29T18:17:32.386Z,10.40
2017-11-29T18:20:00.681Z,9.23
2017-11-29T18:22:28.422Z,9.63
2017-11-29T18:24:56.564Z,11.50
2017-11-29T18:27:24.383Z,10.48
2017-11-29T18:29:52.239Z,11.23
2017-11-29T18:32:20.399Z,11.38
2017-11-29T18:34:48.019Z,11.02
2017-11-29T18:37:15.826Z,11.75
2017-11-29T18:39:43.841Z,11.88
2017-11-29T18:42:11.758Z,12.10
2017-11-29T18:44:39.644Z,12.63
2017-11-29T18:47:07.803Z,11.70
2017-11-29T18:49:35.556Z,11.12
2017-11-29T18:52:03.273Z,9.98
2017-11-29T18:54:31.371Z,11.88
2017-11-29T18:56:59.068Z,13.07
2017-11-29T18:59:26.723Z,12.35
2017-11-29T19:01:55.111Z,12.45
2017-11-29T19:04:22.867Z,14.13
2017-11-29T19:06:50.632Z,14.82
2017-11-29T19:09:18.466Z,16.25
2017-11-29T19:11:46.076Z,13.55
2017-11-29T19:14:13.818Z,13.50
2017-11-29T19:16:41.487Z,11.90
2017-11-29T19:19:09.143Z,11.27
2017-11-29T19:21:36.920Z,13.88
2017-11-29T19:24:04.857Z,11.45
2017-11-29T19:26:32.442Z,11.60
2017-11-29T19:29:00.301Z,12.13
2017-11-29T19:31:28.063Z,10.45
2017-11-29T19:33:55.687Z,9.88
2017-11-29T19:36:23.321Z,10.95
2017-11-29T19:38:51.039Z,11.68
2017-11-29T19:41:18.817Z,13.27
2017-11-29T19:43:46.680Z,12.05
2017-11-29T19:46:14.656Z,10.80
2017-11-29T19:48:42.620Z,11.75
2017-11-29T19:51:10.484Z,11.65
2017-11-29T19:53:38.544Z,12.00
2017-11-29T19:56:06.539Z,11.70
2017-11-29T19:58:34.445Z,11.10
2017-11-29T20:01:02.611Z,11.18
2017-11-29T20:03:30.502Z,12.68
2017-11-29T20:05:58.910Z,10.98
2017-11-29T20:08:26.984Z,11.60
2017-11-29T20:10:54.859Z,11.85
2017-11-29T20:13:22.714Z,13.20
2017-11-29T20:15:50.787Z,16.05
2017-11-29T20:18:18.651Z,14.18
2017-11-29T20:20:46.428Z,13.02
2017-11-29T20:23:14.390Z,11.80
2017-11-29T20:25:42.202Z,11.38
2017-11-29T20:28:10.141Z,11.73
2017-11-29T20:30:38.195Z,12.35
2017-11-29T20:33:05.964Z,13.55
2017-11-29T20:35:33.943Z,11.88
2017-11-29T20:38:01.792Z,11.65
2017-11-29T20:40:29.572Z,11.65
2017-11-29T20:42:57.436Z,11.68
2017-11-29T20:45:25.796Z,16.83
2017-11-29T20:47:53.564Z,20.80
2017-11-29T20:50:21.426Z,13.80
2017-11-29T20:52:56.268Z,12.90
2017-11-29T20:55:24.007Z,11.38
2017-11-29T20:57:51.733Z,12.18
2017-11-29T21:00:19.872Z,11.40
2017-11-29T21:02:47.823Z,13.77
2017-11-29T21:05:15.656Z,13.30
2017-11-29T21:07:43.777Z,12.35
2017-11-29T21:10:12.452Z,10.68
2017-11-29T21:12:40.415Z,11.48
2017-11-29T21:15:08.813Z,13.05
2017-11-29T21:17:37.276Z,11.85
2017-11-29T21:20:05.141Z,12.70
2017-11-29T21:22:33.851Z,13.82
2017-11-29T21:25:01.648Z,12.65
2017-11-29T21:27:29.566Z,13.15
2017-11-29T21:29:57.830Z,11.88
2017-11-29T21:32:26.112Z,12.35
2017-11-29T21:34:53.785Z,10.77
2017-11-29T21:37:21.988Z,12.57
2017-11-29T21:39:49.704Z,11.95
2017-11-29T21:42:17.494Z,12.37
2017-11-29T21:44:45.338Z,11.68
2017-11-29T21:47:13.206Z,11.55
2017-11-29T21:49:41.077Z,11.70
2017-11-29T21:52:08.948Z,12.25
2017-11-29T21:54:36.585Z,14.18
2017-11-29T21:57:04.217Z,14.18
2017-11-29T21:59:32.130Z,13.77
2017-11-29T22:01:59.791Z,13.07
2017-11-29T22:04:27.370Z,12.80
2017-11-29T22:06:55.421Z,13.20
2017-11-29T22:09:22.979Z,12.85
2017-11-29T22:11:50.962Z,12.18
2017-11-29T22:14:18.692Z,14.02
2017-11-29T22:16:46.208Z,12.60
2017-11-29T22:19:13.733Z,10.90
2017-11-29T22:21:41.576Z,13.00
2017-11-29T22:24:09.099Z,12.60
2017-11-29T22:26:36.710Z,10.20
2017-11-29T22:29:04.476Z,10.75
2017-11-29T22:31:32.035Z,10.75
2017-11-29T22:33:59.612Z,11.00
2017-11-29T22:36:27.408Z,11.23
2017-11-29T22:38:55.841Z,11.15
2017-11-29T22:41:23.418Z,10.30
2017-11-29T22:43:51.470Z,11.40
2017-11-29T22:46:19.335Z,14.23
2017-11-29T22:48:46.952Z,10.20
2017-11-29T22:51:14.965Z,11.80
2017-11-29T22:53:42.530Z,11.30
2017-11-29T22:56:10.041Z,9.98
2017-11-29T22:58:37.758Z,11.60
2017-11-29T23:01:05.287Z,10.52
2017-11-29T23:03:32.813Z,10.90
2017-11-29T23:06:00.611Z,11.93
2017-11-29T23:08:27.434Z,9.73
2017-11-29T23:10:54.956Z,11.90
2017-11-29T23:13:22.609Z,10.32
2017-11-29T23:15:50.170Z,11.73
2017-11-29T23:18:17.697Z,10.55
2017-11-29T23:20:45.279Z,10.75
2017-11-29T23:23:12.825Z,11.18
2017-11-29T23:25:40.349Z,11.40
2017-11-29T23:28:07.947Z,10.27
2017-11-29T23:30:35.502Z,9.65
2017-11-29T23:33:03.045Z,10.52
2017-11-29T23:35:30.706Z,8.23
2017-11-29T23:37:58.236Z,11.07
2017-11-29T23:40:25.760Z,7.80
2017-11-29T23:42:53.503Z,9.35
2017-11-29T23:45:21.061Z,8.77
2017-11-29T23:47:48.622Z,8.02
2017-11-29T23:50:16.507Z,8.10
2017-11-29T23:52:44.024Z,9.07
2017-11-29T23:55:11.543Z,8.85
2017-11-29T23:57:39.425Z,9.10
